Almira, Washington
Current Conditions -  °F | °C
As of 10:53 PM on Sunday 23 Nov 2014 (Local Time) from KEPH Reporting Station
Clear Clear  
Wind Chill: 40°   Ceiling: Unl
Heat Index: 44°   Visibility: 10mi
Dew Point: 28°   Wind: 7mph
Humidity: 53%   Direction: NA
Pressure: 30.16"   Gusts: NA
Location:  47.71°N, 118.94°W
Report Text: KEPH 240653Z AUTO VRB06KT 10SM CLR 07/M02 A3016 RMK AO2 SLP221 T00671022 $
Loading
Personal Weather Stations






























Interactive Weather Map New forecast layout! Learn more

10-Day Weather Forecast

Advertisements
Track Severe Weather on mobile